87th Latvian Swimming ChampionshipLong Course (50m)
Riga (LAT)20 - 22 Jun 2011
Women, 100m Freestyle, Timed Final,  Open
100m Freestyle - Women, 4 x 100m Freestyle, Timed Final,  Open
Women, 100m Freestyle, Timed Final,  Open22 Jun 2011 - 12:40TimePts.
1.NIKITINA, Gabriela1994LATRigas Kipsalas PK58.38709
2.JANKOVSKA, Gundega1995LATJelgavas SPS1:00.51636
3.NIKITINA, Agnese1989LATJurmalas SS1:00.92624
4.PETROVA, Kintija1993LATBJSS Ridzene-DSN1:01.61603
5.GIRENSONE, Julija1992LATBJSS Ridzene-OSC1:03.66546
6.LASKOVSKA, Julija1993LATBJSS Ridzene-ZIEP1:04.74519
7.CEPLITE, Krista1999LATRigas Kipsalas PK1:05.16509
8.POZNAK, Diana1993LATJurmalas SS1:05.37505
9.MEDNE, Elizabete1995LATBJSS Ridzene-DSN1:06.72475
10.POHOMOVA, Lidija1997LATJurmalas SS1:07.03468
11.GULBINA, Sabina1996LATSK Delfins1:07.25463
12.LACE, Zane1995LATBJSS Ridzene-DSN1:07.58457
13.SUNEPA, Smaida1996LATBJSS Ridzene-ZOL1:07.70454
14.TIMERMANE, Diana1996LATJelgavas SPS1:07.75453
15.VARMAHOVSKA, Irina1995LATSK Delfins1:08.53438
16.BOVKUNE, Anastasija1997LATRezeknes BJSS1:08.58437
17.SIDORUKA, Anastasija1997LATJelgavas SPS1:08.63436
18.RIBAKOVA, Aleksandra1998LATSK Delfins1:08.69435
19.BAGRIJ, Elina1998LATSK Delfins1:08.74434
20.GOBERGA, Marta1998LATJekabpils SC1:09.20425
21.BAIKOVA, Arina2000LATJurmalas SS1:09.71416
22.UTKINA, Valerija1994LATRigas Kipsalas PK1:10.35405
23.KOVTUNA, Elizabete1998LATJelgavas SPS1:10.53402
24.OZOLA, Agnese Patricija1998LATBJSS Ridzene-DSN1:10.69399
25.RUMKOVSKA, Agnese1997LATBJSS Ridzene-ZIEP1:11.77381
26.MESTERE, Elza1997LATJelgavas SPS1:11.95378
27.PONTAGA, Patricija1996LATBJSS Ridzene-DSN1:12.26373
28.BARANOVSKA, Madara1997LATValmieras BSS1:12.35372
29.PRIEKULE, Patricija1992LATRigas Kipsalas PK1:12.85364
30.BIELE, Marta1997LATBJSS Ridzene-DSN1:13.06361
31.BORISOVA, Anna1997LATBJSS Ridzene-ZOL1:14.16345
32.KALNISKE, Selina1998LATJelgavas SPS1:14.72338
33.VERETENNIKOVA, Viktorija1998LATBJSS Ridzene-DSN1:14.74337
34.GRIGORJEVA, Angelina1998LATSK Delfins1:14.94335
35.JASINOVICA, Odrija1999LATJurmalas SS1:14.96334
36.KALNINA, Anete1994LATBJSS Ridzene-DSN1:16.38316
DSQMUKANE, Karina1998LATRezeknes BJSS1:09.70-
100m Freestyle - Women, 4 x 100m Freestyle, Timed Final,  Open20 Jun 2011TimePts.
RelayRIBAKOVA, Alona1991LATSK Delfins59.73662
RelayTIRUMNIECE, Zane1996LATJelgavas SPS1:03.41553
RelayPOZNAK, Diana1993LATJurmalas SS1:05.87493